createdAt,value
2023-03-08T00:00:06.818Z,4.37
2023-03-08T00:02:34.608Z,4.40
2023-03-08T00:05:02.358Z,4.53
2023-03-08T00:07:30.286Z,4.90
2023-03-08T00:10:00.547Z,5.00
2023-03-08T00:12:29.238Z,5.23
2023-03-08T00:14:57.407Z,4.23
2023-03-08T00:17:25.621Z,4.87
2023-03-08T00:19:53.849Z,5.00
2023-03-08T00:22:23.290Z,4.93
2023-03-08T00:24:51.300Z,5.00
2023-03-08T00:27:20.612Z,4.43
2023-03-08T00:29:48.273Z,5.67
2023-03-08T00:32:17.509Z,5.47
2023-03-08T00:34:47.074Z,5.87
2023-03-08T00:37:15.455Z,6.40
2023-03-08T00:39:44.470Z,5.53
2023-03-08T00:42:12.244Z,5.30
2023-03-08T00:44:41.532Z,5.63
2023-03-08T00:47:09.409Z,4.10
2023-03-08T00:49:37.095Z,4.50
2023-03-08T00:52:05.378Z,5.20
2023-03-08T00:54:33.073Z,5.67
2023-03-08T00:57:00.709Z,5.83
2023-03-08T00:59:28.884Z,5.53
2023-03-08T01:01:58.603Z,6.07
2023-03-08T01:04:26.504Z,6.53
2023-03-08T01:06:54.354Z,6.17
2023-03-08T01:09:22.122Z,5.80
2023-03-08T01:11:50.143Z,6.80
2023-03-08T01:14:18.252Z,5.80
2023-03-08T01:16:47.120Z,6.13
2023-03-08T01:19:16.764Z,5.10
2023-03-08T01:21:46.457Z,5.80
2023-03-08T01:24:14.209Z,6.83
2023-03-08T01:26:41.852Z,7.27
2023-03-08T01:29:09.941Z,5.90
2023-03-08T01:31:37.681Z,5.47
2023-03-08T01:34:05.685Z,5.53
2023-03-08T01:36:35.350Z,5.90
2023-03-08T01:39:03.059Z,6.10
2023-03-08T01:41:32.636Z,5.80
2023-03-08T01:44:00.800Z,6.00
2023-03-08T01:46:29.557Z,5.83
2023-03-08T01:49:01.072Z,6.13
2023-03-08T01:51:32.755Z,5.33
2023-03-08T01:54:03.536Z,5.17
2023-03-08T01:56:31.460Z,5.67
2023-03-08T01:58:59.860Z,5.40
2023-03-08T02:01:27.611Z,5.73
2023-03-08T02:03:55.353Z,5.73
2023-03-08T02:06:24.268Z,5.43
2023-03-08T02:08:52.554Z,5.47
2023-03-08T02:11:22.102Z,5.57
2023-03-08T02:13:50.380Z,5.47
2023-03-08T02:16:19.347Z,6.47
2023-03-08T02:18:51.191Z,6.33
2023-03-08T02:21:18.903Z,6.30
2023-03-08T02:23:48.043Z,6.97
2023-03-08T02:26:16.019Z,7.30
2023-03-08T02:28:45.061Z,7.20
2023-03-08T02:31:13.256Z,6.57
2023-03-08T02:33:41.064Z,7.70
2023-03-08T02:36:09.813Z,7.53
2023-03-08T02:38:37.669Z,7.13
2023-03-08T02:41:07.178Z,6.30
2023-03-08T02:43:35.059Z,6.43
2023-03-08T02:46:02.946Z,7.90
2023-03-08T02:48:30.662Z,7.33
2023-03-08T02:50:58.752Z,7.00
2023-03-08T02:53:26.932Z,6.77
2023-03-08T02:55:54.964Z,8.07
2023-03-08T02:58:24.234Z,7.30
2023-03-08T03:00:52.373Z,7.03
2023-03-08T03:03:20.178Z,8.17
2023-03-08T03:05:48.639Z,6.47
2023-03-08T03:08:16.417Z,7.13
2023-03-08T03:10:44.130Z,6.50
2023-03-08T03:13:12.398Z,7.30
2023-03-08T03:15:44.628Z,6.80
2023-03-08T03:18:12.532Z,7.43
2023-03-08T03:20:40.640Z,6.73
2023-03-08T03:23:09.066Z,6.77
2023-03-08T03:25:38.321Z,7.00
2023-03-08T03:28:06.441Z,6.47
2023-03-08T03:30:34.570Z,7.17
2023-03-08T03:33:04.008Z,6.53
2023-03-08T03:35:31.789Z,5.57
2023-03-08T03:38:00.069Z,5.67
2023-03-08T03:40:27.958Z,7.40
2023-03-08T03:42:55.647Z,7.27
2023-03-08T03:45:23.402Z,5.20
2023-03-08T03:47:51.161Z,7.23
2023-03-08T03:50:20.602Z,6.40
2023-03-08T03:52:48.377Z,6.30
2023-03-08T03:55:16.718Z,6.57
2023-03-08T03:57:44.789Z,7.33
2023-03-08T04:00:13.065Z,6.13
2023-03-08T04:02:41.269Z,6.67
2023-03-08T04:05:09.178Z,6.07
2023-03-08T04:07:38.543Z,7.03
2023-03-08T04:10:07.358Z,6.37
2023-03-08T04:12:35.164Z,5.87
2023-03-08T04:15:02.834Z,6.00
2023-03-08T04:17:30.861Z,5.87
2023-03-08T04:19:58.532Z,5.87
2023-03-08T04:22:26.462Z,6.23
2023-03-08T04:24:55.544Z,5.70
2023-03-08T04:27:23.415Z,6.10
2023-03-08T04:29:51.389Z,6.87
2023-03-08T04:32:19.139Z,6.73
2023-03-08T04:34:47.217Z,6.50
2023-03-08T04:37:18.359Z,6.43
2023-03-08T04:39:46.159Z,6.53
2023-03-08T04:42:15.341Z,6.10
2023-03-08T04:44:43.140Z,6.60
2023-03-08T04:47:10.983Z,5.37
2023-03-08T04:49:39.235Z,6.07
2023-03-08T04:52:07.628Z,6.80
2023-03-08T04:54:35.332Z,6.13
2023-03-08T04:57:04.490Z,8.83
2023-03-08T04:59:33.666Z,10.20
2023-03-08T05:02:01.774Z,13.77
2023-03-08T05:04:29.750Z,15.17
2023-03-08T05:06:57.469Z,15.00
2023-03-08T05:09:25.107Z,14.93
2023-03-08T05:11:53.108Z,13.80
2023-03-08T05:14:21.912Z,14.63
2023-03-08T05:16:51.646Z,12.43
2023-03-08T05:19:20.951Z,13.90
2023-03-08T05:21:50.715Z,14.77
2023-03-08T05:24:18.794Z,14.67
2023-03-08T05:26:46.846Z,15.37
2023-03-08T05:29:14.544Z,13.07
2023-03-08T05:31:45.599Z,11.73
2023-03-08T05:34:15.659Z,12.20
2023-03-08T05:36:43.777Z,13.37
2023-03-08T05:39:12.345Z,12.47
2023-03-08T05:41:40.154Z,14.13
2023-03-08T05:44:08.038Z,12.90
2023-03-08T05:46:38.355Z,12.33
2023-03-08T05:49:06.747Z,13.03
2023-03-08T05:51:36.116Z,12.67
2023-03-08T05:54:04.143Z,13.87
2023-03-08T05:56:32.384Z,14.40
2023-03-08T05:59:00.106Z,14.10
2023-03-08T06:01:28.778Z,14.37
2023-03-08T06:03:57.073Z,15.47
2023-03-08T06:06:26.229Z,16.63
2023-03-08T06:08:56.351Z,15.40
2023-03-08T06:11:24.592Z,17.83
2023-03-08T06:13:54.802Z,15.80
2023-03-08T06:16:23.212Z,15.63
2023-03-08T06:18:51.001Z,15.80
2023-03-08T06:21:19.303Z,15.53
2023-03-08T06:23:48.109Z,15.77
2023-03-08T06:26:17.833Z,17.20
2023-03-08T06:28:45.840Z,18.77
2023-03-08T06:31:14.999Z,18.90
2023-03-08T06:33:42.842Z,19.73
2023-03-08T06:36:12.689Z,17.63
2023-03-08T06:38:41.333Z,16.83
2023-03-08T06:41:09.879Z,16.93
2023-03-08T06:43:39.342Z,15.30
2023-03-08T06:46:07.741Z,16.03
2023-03-08T06:48:35.966Z,20.57
2023-03-08T06:51:03.835Z,19.70
2023-03-08T06:53:32.701Z,20.47
2023-03-08T06:56:03.071Z,19.67
2023-03-08T06:58:30.929Z,14.13
2023-03-08T07:01:00.465Z,10.53
2023-03-08T07:03:29.054Z,6.07
2023-03-08T07:05:59.758Z,4.80
2023-03-08T07:08:27.894Z,6.67
2023-03-08T07:10:55.872Z,6.27
2023-03-08T07:13:24.009Z,5.83
2023-03-08T07:15:52.800Z,6.03
2023-03-08T07:18:22.178Z,5.83
2023-03-08T07:20:54.121Z,5.83
2023-03-08T07:23:22.160Z,5.77
2023-03-08T07:25:49.929Z,5.93
2023-03-08T07:28:17.972Z,5.87
2023-03-08T07:30:47.810Z,5.90
2023-03-08T07:33:15.776Z,6.17
2023-03-08T07:35:45.346Z,6.13
2023-03-08T07:38:13.373Z,5.90
2023-03-08T07:40:41.298Z,8.50
2023-03-08T07:43:09.311Z,6.30
2023-03-08T07:45:39.613Z,5.13
2023-03-08T07:48:08.153Z,5.10
2023-03-08T07:50:36.420Z,4.77
2023-03-08T07:53:05.778Z,6.20
2023-03-08T07:55:33.568Z,6.37
2023-03-08T07:58:01.404Z,5.57
2023-03-08T08:00:29.696Z,6.30
2023-03-08T08:02:57.720Z,5.63
2023-03-08T08:05:25.731Z,5.93
2023-03-08T08:07:53.613Z,6.73
2023-03-08T08:10:23.146Z,6.07
2023-03-08T08:12:51.017Z,6.37
2023-03-08T08:15:21.050Z,6.47
2023-03-08T08:17:48.984Z,5.60
2023-03-08T08:20:17.301Z,6.87
2023-03-08T08:22:44.980Z,6.13
2023-03-08T08:25:12.841Z,8.60
2023-03-08T08:27:42.092Z,8.50
2023-03-08T08:30:10.630Z,8.10
2023-03-08T08:32:38.413Z,8.57
2023-03-08T08:35:06.790Z,8.47
2023-03-08T08:37:35.068Z,7.70
2023-03-08T08:40:03.963Z,8.53
2023-03-08T08:42:32.114Z,7.73
2023-03-08T08:45:01.659Z,7.60
2023-03-08T08:47:31.086Z,8.00
2023-03-08T08:49:59.085Z,6.87
2023-03-08T08:52:26.957Z,7.80
2023-03-08T08:54:54.610Z,7.77
2023-03-08T08:57:23.956Z,6.93
2023-03-08T08:59:51.690Z,7.20
2023-03-08T09:02:21.076Z,7.67
2023-03-08T09:04:49.178Z,7.93
2023-03-08T09:07:17.462Z,7.50
2023-03-08T09:09:46.465Z,7.40
2023-03-08T09:12:14.643Z,7.73
2023-03-08T09:14:42.380Z,7.30
2023-03-08T09:17:10.112Z,7.67
2023-03-08T09:19:39.650Z,9.00
2023-03-08T09:22:08.812Z,7.70
2023-03-08T09:24:36.481Z,6.90
2023-03-08T09:27:06.099Z,7.80
2023-03-08T09:29:34.897Z,5.40
2023-03-08T09:32:03.001Z,4.97
2023-03-08T09:34:31.415Z,5.77
2023-03-08T09:37:00.430Z,5.03
2023-03-08T09:39:28.683Z,6.53
2023-03-08T09:41:57.395Z,4.43
2023-03-08T09:44:45.844Z,5.57
2023-03-08T09:47:17.479Z,5.80
2023-03-08T09:49:47.908Z,5.50
2023-03-08T09:52:22.527Z,6.50
2023-03-08T09:54:51.612Z,6.57
2023-03-08T09:57:24.388Z,5.87
2023-03-08T09:59:55.637Z,6.27
2023-03-08T10:02:30.884Z,5.67
2023-03-08T10:05:12.787Z,5.10
2023-03-08T10:07:49.954Z,5.23
2023-03-08T10:10:23.673Z,4.97
2023-03-08T10:12:56.788Z,5.57
2023-03-08T10:15:26.168Z,6.50
2023-03-08T10:17:57.378Z,5.20
2023-03-08T10:20:27.430Z,5.70
2023-03-08T10:22:58.907Z,7.27
2023-03-08T10:25:28.824Z,6.00
2023-03-08T10:27:57.281Z,6.10
2023-03-08T10:30:28.401Z,6.77
2023-03-08T10:32:58.817Z,6.07
2023-03-08T10:35:34.005Z,7.07
2023-03-08T10:38:03.422Z,6.33
2023-03-08T10:40:31.726Z,6.00
2023-03-08T10:43:04.800Z,5.60
2023-03-08T10:45:32.937Z,5.70
2023-03-08T10:48:01.461Z,5.70
2023-03-08T10:50:30.373Z,6.97
2023-03-08T10:53:09.294Z,7.53
2023-03-08T10:55:43.536Z,6.30
2023-03-08T10:58:27.692Z,6.70
2023-03-08T11:00:56.950Z,7.13
2023-03-08T11:03:25.831Z,8.40
2023-03-08T11:05:56.003Z,6.77
2023-03-08T11:08:26.234Z,5.90
2023-03-08T11:11:06.309Z,7.10
2023-03-08T11:13:35.646Z,7.33
2023-03-08T11:16:21.793Z,6.23
2023-03-08T11:19:03.237Z,6.77
2023-03-08T11:21:34.254Z,7.03
2023-03-08T11:24:09.719Z,6.40
2023-03-08T11:26:44.055Z,4.83
2023-03-08T11:29:19.066Z,4.53
2023-03-08T11:31:51.934Z,5.63
2023-03-08T11:34:34.097Z,5.23
2023-03-08T11:37:04.253Z,5.33
2023-03-08T11:39:34.559Z,4.73
2023-03-08T11:42:09.091Z,5.13
2023-03-08T11:44:50.041Z,5.20
2023-03-08T11:47:43.971Z,4.67
2023-03-08T11:50:16.858Z,4.40
2023-03-08T11:52:48.718Z,4.10
2023-03-08T11:55:30.240Z,4.20
2023-03-08T11:58:02.717Z,3.63
2023-03-08T12:00:32.061Z,5.03
2023-03-08T12:03:01.903Z,4.70
2023-03-08T12:05:31.070Z,4.10
2023-03-08T12:08:02.202Z,3.80
2023-03-08T12:10:32.219Z,4.37
2023-03-08T12:13:03.284Z,3.90
2023-03-08T12:15:34.566Z,4.50
2023-03-08T12:18:06.709Z,5.43
2023-03-08T12:20:37.116Z,5.57
2023-03-08T12:23:09.589Z,4.03
2023-03-08T12:25:40.452Z,3.37
2023-03-08T12:28:14.375Z,2.97
2023-03-08T12:30:49.570Z,3.40
2023-03-08T12:33:18.580Z,3.20
2023-03-08T12:35:56.634Z,3.37
2023-03-08T12:38:31.896Z,1.70
2023-03-08T12:40:59.789Z,1.10
2023-03-08T12:43:34.443Z,1.50
2023-03-08T12:46:03.831Z,1.83
2023-03-08T12:48:33.038Z,1.50
2023-03-08T12:51:04.694Z,1.93
2023-03-08T12:53:36.093Z,1.50
2023-03-08T12:56:05.861Z,2.20
2023-03-08T12:58:36.016Z,1.50
2023-03-08T13:01:05.674Z,1.87
2023-03-08T13:03:39.157Z,1.60
2023-03-08T13:06:17.392Z,2.23
2023-03-08T13:08:48.837Z,1.40
2023-03-08T13:11:17.420Z,1.57
2023-03-08T13:13:50.973Z,1.40
2023-03-08T13:16:21.212Z,1.53
2023-03-08T13:18:52.748Z,2.33
2023-03-08T13:21:26.647Z,1.20
2023-03-08T13:23:57.073Z,1.00
2023-03-08T13:26:47.600Z,1.60
2023-03-08T13:29:20.217Z,1.37
2023-03-08T13:31:48.092Z,1.47
2023-03-08T13:34:24.727Z,1.77
2023-03-08T13:36:52.511Z,1.30
2023-03-08T13:39:21.444Z,1.53
2023-03-08T13:41:49.849Z,1.47
2023-03-08T13:44:18.402Z,1.47
2023-03-08T13:46:49.706Z,1.50
2023-03-08T13:49:19.005Z,1.33
2023-03-08T13:51:48.971Z,1.30
2023-03-08T13:54:18.163Z,1.73
2023-03-08T13:56:46.250Z,1.53
2023-03-08T13:59:19.088Z,1.60
2023-03-08T14:01:52.479Z,1.13
2023-03-08T14:04:21.392Z,2.60
2023-03-08T14:06:50.622Z,1.87
2023-03-08T14:09:19.905Z,1.80
2023-03-08T14:11:53.786Z,1.40
2023-03-08T14:14:27.607Z,1.60
2023-03-08T14:16:57.402Z,1.40
2023-03-08T14:19:26.642Z,1.87
2023-03-08T14:21:55.649Z,1.40
2023-03-08T14:24:24.830Z,1.93
2023-03-08T14:26:56.940Z,3.60
2023-03-08T14:29:25.781Z,2.03
2023-03-08T14:32:05.815Z,1.77
2023-03-08T14:34:36.189Z,4.57
2023-03-08T14:37:06.125Z,2.77
2023-03-08T14:39:34.942Z,4.17
2023-03-08T14:42:10.234Z,3.00
2023-03-08T14:44:38.509Z,4.17
2023-03-08T14:47:12.321Z,4.93
2023-03-08T14:49:39.934Z,2.60
2023-03-08T14:52:19.945Z,2.10
2023-03-08T14:54:47.830Z,6.57
2023-03-08T14:57:17.786Z,2.60
2023-03-08T14:59:45.682Z,2.63
2023-03-08T15:02:15.897Z,1.90
2023-03-08T15:04:44.523Z,2.70
2023-03-08T15:07:16.093Z,2.43
2023-03-08T15:09:43.863Z,2.87
2023-03-08T15:12:12.250Z,1.77
2023-03-08T15:14:39.980Z,3.13
2023-03-08T15:17:07.869Z,2.40
2023-03-08T15:19:37.057Z,2.17
2023-03-08T15:22:06.700Z,2.00
2023-03-08T15:24:34.553Z,1.87
2023-03-08T15:27:02.330Z,1.60
2023-03-08T15:29:33.351Z,1.50
2023-03-08T15:32:01.475Z,1.43
2023-03-08T15:34:29.542Z,1.53
2023-03-08T15:36:58.632Z,2.03
2023-03-08T15:39:26.408Z,2.13
2023-03-08T15:41:54.664Z,3.13
2023-03-08T15:44:22.822Z,1.93
2023-03-08T15:46:52.737Z,3.33
2023-03-08T15:49:21.089Z,3.90
2023-03-08T15:51:50.095Z,1.67
2023-03-08T15:54:19.361Z,2.30
2023-03-08T15:56:46.973Z,2.40
2023-03-08T15:59:15.009Z,2.80
2023-03-08T16:01:42.786Z,1.70
2023-03-08T16:04:10.547Z,3.17
2023-03-08T16:06:38.295Z,2.00
2023-03-08T16:09:06.071Z,2.07
2023-03-08T16:11:35.185Z,2.00
2023-03-08T16:14:03.152Z,1.50
2023-03-08T16:16:44.434Z,1.83
2023-03-08T16:19:12.969Z,2.37
2023-03-08T16:21:40.671Z,1.87
2023-03-08T16:24:08.719Z,3.30
2023-03-08T16:26:37.907Z,4.17
2023-03-08T16:29:05.740Z,2.17
2023-03-08T16:31:34.231Z,2.20
2023-03-08T16:34:03.303Z,1.63
2023-03-08T16:36:31.376Z,2.67
2023-03-08T16:38:59.146Z,2.60
2023-03-08T16:41:30.943Z,4.63
2023-03-08T16:44:00.363Z,4.37
2023-03-08T16:46:29.347Z,2.67
2023-03-08T16:48:57.577Z,1.90
2023-03-08T16:51:26.470Z,2.23
2023-03-08T16:53:54.632Z,2.30
2023-03-08T16:56:23.094Z,3.20
2023-03-08T16:58:51.423Z,3.03
2023-03-08T17:01:21.179Z,2.80
2023-03-08T17:03:52.185Z,4.13
2023-03-08T17:06:20.743Z,2.80
2023-03-08T17:08:48.837Z,3.30
2023-03-08T17:11:19.483Z,3.30
2023-03-08T17:13:51.115Z,3.97
2023-03-08T17:16:20.629Z,4.77
2023-03-08T17:18:48.462Z,3.90
2023-03-08T17:21:16.325Z,3.30
2023-03-08T17:23:46.822Z,3.53
2023-03-08T17:26:15.028Z,4.27
2023-03-08T17:28:43.032Z,3.73
2023-03-08T17:31:11.582Z,5.43
2023-03-08T17:33:41.619Z,3.70
2023-03-08T17:36:10.833Z,3.53
2023-03-08T17:38:38.727Z,3.43
2023-03-08T17:41:07.579Z,7.67
2023-03-08T17:43:35.519Z,5.07
2023-03-08T17:46:05.227Z,7.47
2023-03-08T17:48:33.476Z,6.40
2023-03-08T17:51:06.201Z,4.60
2023-03-08T17:53:34.608Z,4.70
2023-03-08T17:56:05.913Z,4.70
2023-03-08T17:58:33.850Z,4.07
2023-03-08T18:01:08.189Z,7.10
2023-03-08T18:03:36.379Z,5.30
2023-03-08T18:06:05.878Z,5.90
2023-03-08T18:08:33.876Z,12.90
2023-03-08T18:11:01.738Z,4.20
2023-03-08T18:13:30.105Z,3.30
2023-03-08T18:15:58.075Z,2.73
2023-03-08T18:18:27.237Z,4.10
2023-03-08T18:21:01.323Z,3.27
2023-03-08T18:23:36.419Z,3.20
2023-03-08T18:26:04.391Z,2.90
2023-03-08T18:28:33.628Z,3.67
2023-03-08T18:31:01.455Z,4.93
2023-03-08T18:33:29.286Z,3.33
2023-03-08T18:35:57.419Z,4.07
2023-03-08T18:38:25.849Z,4.53
2023-03-08T18:40:54.995Z,4.53
2023-03-08T18:43:22.793Z,13.73
2023-03-08T18:45:51.695Z,3.17
2023-03-08T18:48:20.500Z,5.90
2023-03-08T18:50:48.494Z,3.27
2023-03-08T18:53:16.897Z,7.17
2023-03-08T18:55:55.536Z,5.03
2023-03-08T18:58:24.701Z,4.27
2023-03-08T19:00:52.960Z,3.50
2023-03-08T19:03:21.018Z,4.40
2023-03-08T19:05:49.082Z,3.10
2023-03-08T19:08:17.114Z,2.90
2023-03-08T19:10:45.168Z,2.77
2023-03-08T19:13:14.570Z,2.77
2023-03-08T19:15:43.113Z,3.87
2023-03-08T19:18:11.364Z,2.80
2023-03-08T19:20:39.849Z,2.40
2023-03-08T19:23:09.488Z,2.67
2023-03-08T19:25:59.352Z,2.53
2023-03-08T19:28:30.295Z,2.57
2023-03-08T19:30:57.966Z,4.67
2023-03-08T19:33:30.897Z,3.40
2023-03-08T19:35:59.571Z,2.40
2023-03-08T19:38:27.458Z,2.40
2023-03-08T19:40:55.522Z,4.60
2023-03-08T19:43:23.352Z,12.00
2023-03-08T19:45:52.796Z,14.40
2023-03-08T19:48:20.587Z,12.63
2023-03-08T19:50:49.823Z,13.50
2023-03-08T19:53:17.752Z,14.03
2023-03-08T19:55:51.785Z,16.37
2023-03-08T19:58:20.234Z,16.43
2023-03-08T20:00:48.400Z,20.07
2023-03-08T20:03:17.905Z,19.53
2023-03-08T20:05:46.716Z,24.87
2023-03-08T20:08:15.063Z,27.13
2023-03-08T20:10:43.106Z,24.77
2023-03-08T20:13:11.345Z,23.60
2023-03-08T20:15:39.444Z,21.80
2023-03-08T20:18:07.619Z,26.83
2023-03-08T20:20:37.041Z,19.83
2023-03-08T20:23:05.101Z,17.73
2023-03-08T20:25:34.948Z,18.00
2023-03-08T20:28:03.207Z,16.03
2023-03-08T20:30:30.899Z,17.40
2023-03-08T20:32:58.933Z,15.53
2023-03-08T20:35:26.846Z,16.23
2023-03-08T20:37:56.027Z,14.27
2023-03-08T20:40:23.896Z,13.60
2023-03-08T20:42:51.707Z,10.03
2023-03-08T20:45:23.797Z,11.83
2023-03-08T20:47:55.301Z,11.20
2023-03-08T20:50:23.270Z,8.50
2023-03-08T20:52:51.085Z,7.30
2023-03-08T20:55:20.303Z,6.67
2023-03-08T20:57:48.087Z,6.83
2023-03-08T21:00:16.598Z,6.13
2023-03-08T21:05:39.652Z,6.43
2023-03-08T21:08:07.728Z,6.57
2023-03-08T21:10:37.872Z,5.67
2023-03-08T21:13:07.292Z,7.10
2023-03-08T21:15:35.538Z,5.50
2023-03-08T21:18:03.798Z,5.47
2023-03-08T21:20:31.651Z,6.13
2023-03-08T21:22:59.681Z,6.37
2023-03-08T21:25:27.453Z,5.40
2023-03-08T21:27:57.166Z,6.40
2023-03-08T21:30:24.937Z,6.70
2023-03-08T21:32:52.780Z,8.40
2023-03-08T21:35:20.677Z,11.17
2023-03-08T21:37:48.340Z,12.67
2023-03-08T21:40:16.117Z,10.23
2023-03-08T21:42:44.037Z,9.60
2023-03-08T21:45:13.565Z,7.63
2023-03-08T21:47:41.268Z,7.80
2023-03-08T21:50:10.140Z,9.27
2023-03-08T21:52:37.861Z,8.50
2023-03-08T21:55:06.088Z,8.83
2023-03-08T21:57:34.183Z,8.63
2023-03-08T22:00:02.064Z,9.83
2023-03-08T22:02:31.180Z,9.40
2023-03-08T22:05:00.415Z,9.30
2023-03-08T22:07:28.281Z,9.40
2023-03-08T22:09:56.010Z,9.37
2023-03-08T22:12:24.263Z,10.10
2023-03-08T22:14:52.060Z,9.37
2023-03-08T22:17:20.325Z,8.67
2023-03-08T22:19:49.837Z,8.63
2023-03-08T22:22:19.675Z,8.67
2023-03-08T22:24:47.528Z,8.03
2023-03-08T22:27:16.216Z,8.57
2023-03-08T22:29:43.957Z,8.43
2023-03-08T22:32:13.885Z,8.90
2023-03-08T22:34:41.756Z,10.70
2023-03-08T22:37:10.952Z,11.93
2023-03-08T22:39:41.034Z,14.30
2023-03-08T22:42:08.775Z,13.13
2023-03-08T22:44:37.708Z,12.40
2023-03-08T22:47:06.291Z,12.50
2023-03-08T22:49:34.440Z,12.50
2023-03-08T22:52:02.146Z,11.63
2023-03-08T22:54:31.645Z,8.60
2023-03-08T22:57:00.627Z,9.93
2023-03-08T22:59:28.439Z,10.60
2023-03-08T23:01:56.399Z,10.00
2023-03-08T23:04:24.325Z,9.63
2023-03-08T23:06:52.338Z,10.43
2023-03-08T23:09:20.181Z,9.70
2023-03-08T23:11:49.794Z,10.23
2023-03-08T23:14:17.585Z,6.57
2023-03-08T23:16:48.399Z,8.73
2023-03-08T23:19:17.063Z,8.40
2023-03-08T23:21:46.273Z,7.57
2023-03-08T23:24:14.233Z,6.83
2023-03-08T23:26:43.363Z,7.23
2023-03-08T23:29:13.380Z,8.33
2023-03-08T23:31:43.902Z,9.43
2023-03-08T23:34:11.993Z,8.30
2023-03-08T23:36:39.926Z,10.80
2023-03-08T23:39:08.324Z,9.20
2023-03-08T23:41:36.423Z,9.57
2023-03-08T23:44:04.702Z,9.90
2023-03-08T23:46:33.904Z,7.27
2023-03-08T23:49:02.330Z,9.53
2023-03-08T23:51:30.800Z,7.73
2023-03-08T23:53:59.955Z,7.90
2023-03-08T23:56:30.268Z,8.67
2023-03-08T23:58:58.856Z,7.30
